sensor_id;sensor_type;location;lat;lon;timestamp;P1;durP1;ratioP1;P2;durP2;ratioP2
29092;SDS011;16167;48.768;14.984;2023-12-22T00:00:38;2.22;;;0.88;;
29092;SDS011;16167;48.768;14.984;2023-12-22T00:03:07;3.67;;;0.80;;
29092;SDS011;16167;48.768;14.984;2023-12-22T00:05:35;3.22;;;0.60;;
29092;SDS011;16167;48.768;14.984;2023-12-22T00:08:04;3.42;;;0.90;;
29092;SDS011;16167;48.768;14.984;2023-12-22T00:10:33;2.00;;;0.70;;
29092;SDS011;16167;48.768;14.984;2023-12-22T00:13:01;2.72;;;0.80;;
29092;SDS011;16167;48.768;14.984;2023-12-22T00:15:31;2.07;;;0.73;;
29092;SDS011;16167;48.768;14.984;2023-12-22T00:17:59;1.83;;;0.80;;
29092;SDS011;16167;48.768;14.984;2023-12-22T00:20:28;1.55;;;0.88;;
29092;SDS011;16167;48.768;14.984;2023-12-22T00:22:56;1.92;;;0.70;;
29092;SDS011;16167;48.768;14.984;2023-12-22T00:25:25;1.00;;;0.60;;
29092;SDS011;16167;48.768;14.984;2023-12-22T00:27:53;2.75;;;0.80;;
29092;SDS011;16167;48.768;14.984;2023-12-22T00:30:21;2.65;;;0.82;;
29092;SDS011;16167;48.768;14.984;2023-12-22T00:32:52;3.72;;;0.88;;
29092;SDS011;16167;48.768;14.984;2023-12-22T00:35:20;3.45;;;1.15;;
29092;SDS011;16167;48.768;14.984;2023-12-22T00:37:48;2.75;;;0.95;;
29092;SDS011;16167;48.768;14.984;2023-12-22T00:40:17;9.20;;;1.25;;
29092;SDS011;16167;48.768;14.984;2023-12-22T00:42:46;2.20;;;1.10;;
29092;SDS011;16167;48.768;14.984;2023-12-22T00:45:14;5.22;;;1.40;;
29092;SDS011;16167;48.768;14.984;2023-12-22T00:47:43;4.97;;;1.23;;
29092;SDS011;16167;48.768;14.984;2023-12-22T00:50:14;7.20;;;1.20;;
29092;SDS011;16167;48.768;14.984;2023-12-22T00:52:42;5.95;;;1.48;;
29092;SDS011;16167;48.768;14.984;2023-12-22T00:55:12;5.28;;;0.90;;
29092;SDS011;16167;48.768;14.984;2023-12-22T01:00:09;2.50;;;0.85;;
29092;SDS011;16167;48.768;14.984;2023-12-22T01:02:38;10.50;;;2.10;;
29092;SDS011;16167;48.768;14.984;2023-12-22T01:05:07;9.70;;;1.63;;
29092;SDS011;16167;48.768;14.984;2023-12-22T01:07:38;9.23;;;1.60;;
29092;SDS011;16167;48.768;14.984;2023-12-22T01:10:07;6.70;;;2.25;;
29092;SDS011;16167;48.768;14.984;2023-12-22T01:12:36;9.07;;;1.55;;
29092;SDS011;16167;48.768;14.984;2023-12-22T01:15:05;7.93;;;2.20;;
29092;SDS011;16167;48.768;14.984;2023-12-22T01:17:34;10.43;;;1.52;;
29092;SDS011;16167;48.768;14.984;2023-12-22T01:20:05;12.57;;;2.42;;
29092;SDS011;16167;48.768;14.984;2023-12-22T01:22:34;10.57;;;2.22;;
29092;SDS011;16167;48.768;14.984;2023-12-22T01:25:07;10.90;;;2.25;;
29092;SDS011;16167;48.768;14.984;2023-12-22T01:27:35;11.75;;;2.28;;
29092;SDS011;16167;48.768;14.984;2023-12-22T01:30:04;12.38;;;2.40;;
29092;SDS011;16167;48.768;14.984;2023-12-22T01:32:34;9.23;;;2.65;;
29092;SDS011;16167;48.768;14.984;2023-12-22T01:35:03;16.65;;;2.35;;
29092;SDS011;16167;48.768;14.984;2023-12-22T01:37:36;17.25;;;3.22;;
29092;SDS011;16167;48.768;14.984;2023-12-22T01:40:05;5.03;;;1.90;;
29092;SDS011;16167;48.768;14.984;2023-12-22T01:42:38;12.10;;;2.30;;
29092;SDS011;16167;48.768;14.984;2023-12-22T01:45:07;11.20;;;2.28;;
29092;SDS011;16167;48.768;14.984;2023-12-22T01:47:37;5.03;;;1.98;;
29092;SDS011;16167;48.768;14.984;2023-12-22T01:50:06;13.82;;;2.22;;
29092;SDS011;16167;48.768;14.984;2023-12-22T01:52:37;10.20;;;2.45;;
29092;SDS011;16167;48.768;14.984;2023-12-22T01:57:38;9.75;;;2.25;;
29092;SDS011;16167;48.768;14.984;2023-12-22T02:00:07;8.23;;;2.17;;
29092;SDS011;16167;48.768;14.984;2023-12-22T02:05:05;7.03;;;1.25;;
29092;SDS011;16167;48.768;14.984;2023-12-22T02:07:36;7.70;;;2.25;;
29092;SDS011;16167;48.768;14.984;2023-12-22T02:10:07;15.43;;;2.78;;
29092;SDS011;16167;48.768;14.984;2023-12-22T02:12:37;9.10;;;2.13;;
29092;SDS011;16167;48.768;14.984;2023-12-22T02:15:06;7.60;;;1.92;;
29092;SDS011;16167;48.768;14.984;2023-12-22T02:17:38;7.50;;;1.70;;
29092;SDS011;16167;48.768;14.984;2023-12-22T02:20:13;6.85;;;1.45;;
29092;SDS011;16167;48.768;14.984;2023-12-22T02:22:43;6.47;;;2.42;;
29092;SDS011;16167;48.768;14.984;2023-12-22T02:25:12;7.72;;;2.15;;
29092;SDS011;16167;48.768;14.984;2023-12-22T02:27:44;13.63;;;2.05;;
29092;SDS011;16167;48.768;14.984;2023-12-22T02:30:18;10.38;;;2.17;;
29092;SDS011;16167;48.768;14.984;2023-12-22T02:32:52;6.50;;;1.95;;
29092;SDS011;16167;48.768;14.984;2023-12-22T02:35:23;8.40;;;1.90;;
29092;SDS011;16167;48.768;14.984;2023-12-22T02:37:56;10.38;;;2.15;;
29092;SDS011;16167;48.768;14.984;2023-12-22T02:40:26;7.93;;;1.88;;
29092;SDS011;16167;48.768;14.984;2023-12-22T02:42:55;7.72;;;1.55;;
29092;SDS011;16167;48.768;14.984;2023-12-22T02:45:24;8.82;;;2.33;;
29092;SDS011;16167;48.768;14.984;2023-12-22T02:47:52;8.10;;;1.52;;
29092;SDS011;16167;48.768;14.984;2023-12-22T02:50:21;6.65;;;1.88;;
29092;SDS011;16167;48.768;14.984;2023-12-22T02:52:49;7.38;;;1.38;;
29092;SDS011;16167;48.768;14.984;2023-12-22T02:55:19;4.38;;;1.30;;
29092;SDS011;16167;48.768;14.984;2023-12-22T02:57:48;5.18;;;1.67;;
29092;SDS011;16167;48.768;14.984;2023-12-22T03:00:16;4.63;;;1.10;;
29092;SDS011;16167;48.768;14.984;2023-12-22T03:02:45;7.05;;;1.50;;
29092;SDS011;16167;48.768;14.984;2023-12-22T03:05:13;7.22;;;1.55;;
29092;SDS011;16167;48.768;14.984;2023-12-22T03:07:42;8.95;;;2.38;;
29092;SDS011;16167;48.768;14.984;2023-12-22T03:10:10;8.25;;;1.75;;
29092;SDS011;16167;48.768;14.984;2023-12-22T03:12:40;9.25;;;1.95;;
29092;SDS011;16167;48.768;14.984;2023-12-22T03:15:10;3.88;;;1.52;;
29092;SDS011;16167;48.768;14.984;2023-12-22T03:17:38;9.55;;;1.38;;
29092;SDS011;16167;48.768;14.984;2023-12-22T03:20:06;8.30;;;1.65;;
29092;SDS011;16167;48.768;14.984;2023-12-22T03:22:35;6.32;;;1.35;;
29092;SDS011;16167;48.768;14.984;2023-12-22T03:25:04;13.05;;;2.15;;
29092;SDS011;16167;48.768;14.984;2023-12-22T03:27:33;8.23;;;1.58;;
29092;SDS011;16167;48.768;14.984;2023-12-22T03:30:03;5.18;;;1.50;;
29092;SDS011;16167;48.768;14.984;2023-12-22T03:32:32;8.63;;;2.08;;
29092;SDS011;16167;48.768;14.984;2023-12-22T03:35:00;8.88;;;1.73;;
29092;SDS011;16167;48.768;14.984;2023-12-22T03:37:29;7.72;;;1.75;;
29092;SDS011;16167;48.768;14.984;2023-12-22T03:39:57;13.77;;;1.90;;
29092;SDS011;16167;48.768;14.984;2023-12-22T03:42:25;5.72;;;1.42;;
29092;SDS011;16167;48.768;14.984;2023-12-22T03:44:54;11.75;;;1.85;;
29092;SDS011;16167;48.768;14.984;2023-12-22T03:47:24;9.73;;;1.77;;
29092;SDS011;16167;48.768;14.984;2023-12-22T03:49:52;10.30;;;1.83;;
29092;SDS011;16167;48.768;14.984;2023-12-22T03:52:21;9.90;;;2.00;;
29092;SDS011;16167;48.768;14.984;2023-12-22T03:54:49;7.32;;;1.85;;
29092;SDS011;16167;48.768;14.984;2023-12-22T03:57:18;7.88;;;2.33;;
29092;SDS011;16167;48.768;14.984;2023-12-22T03:59:47;9.80;;;2.00;;
29092;SDS011;16167;48.768;14.984;2023-12-22T04:02:16;9.13;;;1.75;;
29092;SDS011;16167;48.768;14.984;2023-12-22T04:04:45;7.97;;;1.92;;
29092;SDS011;16167;48.768;14.984;2023-12-22T04:07:14;7.05;;;1.65;;
29092;SDS011;16167;48.768;14.984;2023-12-22T04:09:42;10.52;;;2.47;;
29092;SDS011;16167;48.768;14.984;2023-12-22T04:12:09;7.20;;;1.90;;
29092;SDS011;16167;48.768;14.984;2023-12-22T04:14:38;10.93;;;2.10;;
29092;SDS011;16167;48.768;14.984;2023-12-22T04:17:07;11.68;;;2.38;;
29092;SDS011;16167;48.768;14.984;2023-12-22T04:22:06;13.73;;;2.85;;
29092;SDS011;16167;48.768;14.984;2023-12-22T04:24:34;6.72;;;1.92;;
29092;SDS011;16167;48.768;14.984;2023-12-22T04:27:03;12.98;;;2.40;;
29092;SDS011;16167;48.768;14.984;2023-12-22T04:29:31;11.63;;;1.80;;
29092;SDS011;16167;48.768;14.984;2023-12-22T04:31:59;11.13;;;2.47;;
29092;SDS011;16167;48.768;14.984;2023-12-22T04:34:28;15.23;;;2.33;;
29092;SDS011;16167;48.768;14.984;2023-12-22T04:36:56;12.38;;;3.42;;
29092;SDS011;16167;48.768;14.984;2023-12-22T04:39:28;9.98;;;2.00;;
29092;SDS011;16167;48.768;14.984;2023-12-22T04:41:57;16.38;;;2.28;;
29092;SDS011;16167;48.768;14.984;2023-12-22T04:44:26;6.00;;;2.13;;
29092;SDS011;16167;48.768;14.984;2023-12-22T04:46:55;8.55;;;2.10;;
29092;SDS011;16167;48.768;14.984;2023-12-22T04:49:23;11.82;;;1.80;;
29092;SDS011;16167;48.768;14.984;2023-12-22T04:51:53;10.60;;;1.98;;
29092;SDS011;16167;48.768;14.984;2023-12-22T04:54:26;10.80;;;2.95;;
29092;SDS011;16167;48.768;14.984;2023-12-22T04:56:55;10.02;;;2.33;;
29092;SDS011;16167;48.768;14.984;2023-12-22T04:59:24;13.80;;;2.65;;
29092;SDS011;16167;48.768;14.984;2023-12-22T05:01:53;11.35;;;2.05;;
29092;SDS011;16167;48.768;14.984;2023-12-22T05:04:22;10.75;;;2.08;;
29092;SDS011;16167;48.768;14.984;2023-12-22T05:06:50;9.35;;;2.70;;
29092;SDS011;16167;48.768;14.984;2023-12-22T05:09:18;9.35;;;1.92;;
29092;SDS011;16167;48.768;14.984;2023-12-22T05:11:47;10.07;;;2.03;;
29092;SDS011;16167;48.768;14.984;2023-12-22T05:14:16;11.35;;;1.95;;
29092;SDS011;16167;48.768;14.984;2023-12-22T05:16:45;13.60;;;3.28;;
29092;SDS011;16167;48.768;14.984;2023-12-22T05:19:19;7.65;;;1.70;;
29092;SDS011;16167;48.768;14.984;2023-12-22T05:21:47;7.57;;;1.98;;
29092;SDS011;16167;48.768;14.984;2023-12-22T05:24:16;17.23;;;2.45;;
29092;SDS011;16167;48.768;14.984;2023-12-22T05:26:44;9.65;;;2.17;;
29092;SDS011;16167;48.768;14.984;2023-12-22T05:29:13;6.90;;;1.67;;
29092;SDS011;16167;48.768;14.984;2023-12-22T05:31:43;5.20;;;1.35;;
29092;SDS011;16167;48.768;14.984;2023-12-22T05:34:11;12.95;;;2.58;;
29092;SDS011;16167;48.768;14.984;2023-12-22T05:36:40;9.52;;;2.55;;
29092;SDS011;16167;48.768;14.984;2023-12-22T05:39:08;8.05;;;2.17;;
29092;SDS011;16167;48.768;14.984;2023-12-22T05:41:37;5.85;;;1.75;;
29092;SDS011;16167;48.768;14.984;2023-12-22T05:44:05;7.05;;;2.10;;
29092;SDS011;16167;48.768;14.984;2023-12-22T05:46:35;12.50;;;1.83;;
29092;SDS011;16167;48.768;14.984;2023-12-22T05:49:06;4.03;;;1.13;;
29092;SDS011;16167;48.768;14.984;2023-12-22T05:51:37;7.78;;;2.25;;
29092;SDS011;16167;48.768;14.984;2023-12-22T05:54:06;6.70;;;1.40;;
29092;SDS011;16167;48.768;14.984;2023-12-22T05:56:36;10.93;;;2.55;;
29092;SDS011;16167;48.768;14.984;2023-12-22T05:59:08;6.53;;;1.65;;
29092;SDS011;16167;48.768;14.984;2023-12-22T06:01:36;5.15;;;1.40;;
29092;SDS011;16167;48.768;14.984;2023-12-22T06:04:07;7.18;;;2.03;;
29092;SDS011;16167;48.768;14.984;2023-12-22T06:06:36;7.43;;;1.45;;
29092;SDS011;16167;48.768;14.984;2023-12-22T06:09:06;5.47;;;1.48;;
29092;SDS011;16167;48.768;14.984;2023-12-22T06:11:34;6.40;;;1.40;;
29092;SDS011;16167;48.768;14.984;2023-12-22T06:14:02;4.53;;;0.98;;
29092;SDS011;16167;48.768;14.984;2023-12-22T06:16:31;4.90;;;1.05;;
29092;SDS011;16167;48.768;14.984;2023-12-22T06:18:59;2.27;;;0.87;;
29092;SDS011;16167;48.768;14.984;2023-12-22T06:21:29;4.17;;;1.10;;
29092;SDS011;16167;48.768;14.984;2023-12-22T06:23:58;6.55;;;1.30;;
29092;SDS011;16167;48.768;14.984;2023-12-22T06:26:26;3.88;;;1.10;;
29092;SDS011;16167;48.768;14.984;2023-12-22T06:28:55;4.78;;;1.00;;
29092;SDS011;16167;48.768;14.984;2023-12-22T06:33:52;3.72;;;1.17;;
29092;SDS011;16167;48.768;14.984;2023-12-22T06:36:21;4.63;;;1.40;;
29092;SDS011;16167;48.768;14.984;2023-12-22T06:41:25;3.50;;;1.35;;
29092;SDS011;16167;48.768;14.984;2023-12-22T06:43:55;2.55;;;1.50;;
29092;SDS011;16167;48.768;14.984;2023-12-22T06:46:33;2.78;;;1.00;;
29092;SDS011;16167;48.768;14.984;2023-12-22T06:49:01;3.92;;;1.20;;
29092;SDS011;16167;48.768;14.984;2023-12-22T06:51:33;8.82;;;1.67;;
29092;SDS011;16167;48.768;14.984;2023-12-22T06:56:33;2.55;;;1.10;;
29092;SDS011;16167;48.768;14.984;2023-12-22T06:59:02;5.53;;;1.00;;
29092;SDS011;16167;48.768;14.984;2023-12-22T07:01:31;5.85;;;1.10;;
29092;SDS011;16167;48.768;14.984;2023-12-22T07:04:04;3.03;;;1.02;;
29092;SDS011;16167;48.768;14.984;2023-12-22T07:06:33;2.55;;;1.00;;
29092;SDS011;16167;48.768;14.984;2023-12-22T07:11:56;1.60;;;0.65;;
29092;SDS011;16167;48.768;14.984;2023-12-22T07:14:25;3.35;;;0.93;;
29092;SDS011;16167;48.768;14.984;2023-12-22T07:16:53;5.50;;;0.93;;
29092;SDS011;16167;48.768;14.984;2023-12-22T07:19:21;1.40;;;0.82;;
29092;SDS011;16167;48.768;14.984;2023-12-22T07:21:50;2.17;;;0.90;;
29092;SDS011;16167;48.768;14.984;2023-12-22T07:24:18;2.70;;;0.93;;
29092;SDS011;16167;48.768;14.984;2023-12-22T07:26:48;2.30;;;0.83;;
29092;SDS011;16167;48.768;14.984;2023-12-22T07:29:17;1.90;;;0.90;;
29092;SDS011;16167;48.768;14.984;2023-12-22T07:31:46;5.20;;;1.50;;
29092;SDS011;16167;48.768;14.984;2023-12-22T07:34:14;2.63;;;1.35;;
29092;SDS011;16167;48.768;14.984;2023-12-22T07:36:43;3.53;;;1.20;;
29092;SDS011;16167;48.768;14.984;2023-12-22T07:39:25;4.70;;;1.15;;
29092;SDS011;16167;48.768;14.984;2023-12-22T07:41:55;3.80;;;1.60;;
29092;SDS011;16167;48.768;14.984;2023-12-22T07:44:23;3.55;;;1.40;;
29092;SDS011;16167;48.768;14.984;2023-12-22T07:46:58;1.10;;;0.77;;
29092;SDS011;16167;48.768;14.984;2023-12-22T07:49:29;5.72;;;0.80;;
29092;SDS011;16167;48.768;14.984;2023-12-22T07:51:58;3.75;;;1.25;;
29092;SDS011;16167;48.768;14.984;2023-12-22T07:54:30;2.03;;;1.02;;
29092;SDS011;16167;48.768;14.984;2023-12-22T07:59:28;2.28;;;1.00;;
29092;SDS011;16167;48.768;14.984;2023-12-22T08:04:27;2.58;;;0.90;;
29092;SDS011;16167;48.768;14.984;2023-12-22T08:06:55;7.05;;;1.20;;
29092;SDS011;16167;48.768;14.984;2023-12-22T08:09:23;4.32;;;1.20;;
29092;SDS011;16167;48.768;14.984;2023-12-22T08:11:52;2.60;;;1.17;;
29092;SDS011;16167;48.768;14.984;2023-12-22T08:14:24;6.40;;;1.10;;
29092;SDS011;16167;48.768;14.984;2023-12-22T08:16:52;5.88;;;1.45;;
29092;SDS011;16167;48.768;14.984;2023-12-22T08:19:20;4.80;;;1.08;;
29092;SDS011;16167;48.768;14.984;2023-12-22T08:21:52;4.60;;;1.42;;
29092;SDS011;16167;48.768;14.984;2023-12-22T08:24:21;6.20;;;1.45;;
29092;SDS011;16167;48.768;14.984;2023-12-22T08:26:50;2.35;;;0.90;;
29092;SDS011;16167;48.768;14.984;2023-12-22T08:29:19;4.75;;;1.40;;
29092;SDS011;16167;48.768;14.984;2023-12-22T08:31:48;4.07;;;1.20;;
29092;SDS011;16167;48.768;14.984;2023-12-22T08:34:17;5.45;;;1.10;;
29092;SDS011;16167;48.768;14.984;2023-12-22T08:36:46;3.33;;;0.98;;
29092;SDS011;16167;48.768;14.984;2023-12-22T08:39:14;7.45;;;1.20;;
29092;SDS011;16167;48.768;14.984;2023-12-22T08:41:43;2.63;;;1.30;;
29092;SDS011;16167;48.768;14.984;2023-12-22T08:44:13;3.90;;;1.20;;
29092;SDS011;16167;48.768;14.984;2023-12-22T08:49:11;1.42;;;0.80;;
29092;SDS011;16167;48.768;14.984;2023-12-22T08:51:40;3.80;;;0.88;;
29092;SDS011;16167;48.768;14.984;2023-12-22T08:54:09;5.75;;;1.23;;
29092;SDS011;16167;48.768;14.984;2023-12-22T08:56:37;3.75;;;2.05;;
29092;SDS011;16167;48.768;14.984;2023-12-22T08:59:06;7.18;;;1.83;;
29092;SDS011;16167;48.768;14.984;2023-12-22T09:01:35;6.88;;;2.95;;
29092;SDS011;16167;48.768;14.984;2023-12-22T09:04:04;72.32;;;32.70;;
29092;SDS011;16167;48.768;14.984;2023-12-22T09:06:36;264.60;;;109.90;;
29092;SDS011;16167;48.768;14.984;2023-12-22T09:09:05;143.60;;;85.43;;
29092;SDS011;16167;48.768;14.984;2023-12-22T09:11:35;6.38;;;1.50;;
29092;SDS011;16167;48.768;14.984;2023-12-22T09:14:04;4.68;;;1.38;;
29092;SDS011;16167;48.768;14.984;2023-12-22T09:16:36;2.83;;;1.10;;
29092;SDS011;16167;48.768;14.984;2023-12-22T09:19:05;3.45;;;1.08;;
29092;SDS011;16167;48.768;14.984;2023-12-22T09:21:35;4.47;;;0.95;;
29092;SDS011;16167;48.768;14.984;2023-12-22T09:24:05;8.13;;;1.45;;
29092;SDS011;16167;48.768;14.984;2023-12-22T09:26:34;2.08;;;1.30;;
29092;SDS011;16167;48.768;14.984;2023-12-22T09:29:06;3.97;;;1.30;;
29092;SDS011;16167;48.768;14.984;2023-12-22T09:31:35;5.55;;;1.02;;
29092;SDS011;16167;48.768;14.984;2023-12-22T09:34:08;4.53;;;1.20;;
29092;SDS011;16167;48.768;14.984;2023-12-22T09:36:38;3.47;;;1.15;;
29092;SDS011;16167;48.768;14.984;2023-12-22T09:39:07;3.60;;;1.10;;
29092;SDS011;16167;48.768;14.984;2023-12-22T09:41:35;3.60;;;1.10;;
29092;SDS011;16167;48.768;14.984;2023-12-22T09:44:04;1.40;;;0.75;;
29092;SDS011;16167;48.768;14.984;2023-12-22T09:46:34;3.55;;;0.73;;
29092;SDS011;16167;48.768;14.984;2023-12-22T09:49:03;4.78;;;1.00;;
29092;SDS011;16167;48.768;14.984;2023-12-22T09:51:34;1.70;;;0.88;;
29092;SDS011;16167;48.768;14.984;2023-12-22T09:54:08;3.40;;;1.08;;
29092;SDS011;16167;48.768;14.984;2023-12-22T09:56:38;2.95;;;0.95;;
29092;SDS011;16167;48.768;14.984;2023-12-22T09:59:09;1.45;;;0.63;;
29092;SDS011;16167;48.768;14.984;2023-12-22T10:01:42;1.70;;;0.77;;
29092;SDS011;16167;48.768;14.984;2023-12-22T10:04:12;2.70;;;0.50;;
29092;SDS011;16167;48.768;14.984;2023-12-22T10:06:43;2.40;;;0.80;;
29092;SDS011;16167;48.768;14.984;2023-12-22T10:09:14;1.20;;;0.50;;
29092;SDS011;16167;48.768;14.984;2023-12-22T10:11:44;2.15;;;1.02;;
29092;SDS011;16167;48.768;14.984;2023-12-22T10:14:17;3.65;;;0.80;;
29092;SDS011;16167;48.768;14.984;2023-12-22T10:16:49;1.95;;;0.98;;
29092;SDS011;16167;48.768;14.984;2023-12-22T10:19:18;1.50;;;0.90;;
29092;SDS011;16167;48.768;14.984;2023-12-22T10:21:49;1.77;;;0.82;;
29092;SDS011;16167;48.768;14.984;2023-12-22T10:24:37;4.50;;;0.85;;
29092;SDS011;16167;48.768;14.984;2023-12-22T10:27:06;1.13;;;0.80;;
29092;SDS011;16167;48.768;14.984;2023-12-22T10:29:37;0.80;;;0.35;;
29092;SDS011;16167;48.768;14.984;2023-12-22T10:32:06;1.52;;;0.55;;
29092;SDS011;16167;48.768;14.984;2023-12-22T10:34:36;9.30;;;0.60;;
29092;SDS011;16167;48.768;14.984;2023-12-22T10:37:06;1.40;;;0.93;;
29092;SDS011;16167;48.768;14.984;2023-12-22T10:39:36;4.35;;;0.80;;
29092;SDS011;16167;48.768;14.984;2023-12-22T10:42:05;2.35;;;0.88;;
29092;SDS011;16167;48.768;14.984;2023-12-22T10:44:34;1.77;;;0.60;;
29092;SDS011;16167;48.768;14.984;2023-12-22T10:47:03;0.88;;;0.70;;
29092;SDS011;16167;48.768;14.984;2023-12-22T10:49:33;0.60;;;0.60;;
29092;SDS011;16167;48.768;14.984;2023-12-22T10:52:02;2.30;;;0.70;;
29092;SDS011;16167;48.768;14.984;2023-12-22T10:54:33;0.80;;;0.77;;
29092;SDS011;16167;48.768;14.984;2023-12-22T10:57:04;1.05;;;0.45;;
29092;SDS011;16167;48.768;14.984;2023-12-22T11:02:15;0.57;;;0.57;;
29092;SDS011;16167;48.768;14.984;2023-12-22T11:04:47;0.82;;;0.77;;
29092;SDS011;16167;48.768;14.984;2023-12-22T11:07:21;0.95;;;0.60;;
29092;SDS011;16167;48.768;14.984;2023-12-22T11:09:53;1.13;;;0.70;;
29092;SDS011;16167;48.768;14.984;2023-12-22T11:12:25;2.50;;;1.15;;
29092;SDS011;16167;48.768;14.984;2023-12-22T11:14:54;1.77;;;1.20;;
29092;SDS011;16167;48.768;14.984;2023-12-22T11:17:24;2.30;;;1.23;;
29092;SDS011;16167;48.768;14.984;2023-12-22T11:19:56;1.73;;;0.77;;
29092;SDS011;16167;48.768;14.984;2023-12-22T11:22:26;5.68;;;1.10;;
29092;SDS011;16167;48.768;14.984;2023-12-22T11:24:57;2.85;;;0.88;;
29092;SDS011;16167;48.768;14.984;2023-12-22T11:27:28;2.20;;;0.70;;
29092;SDS011;16167;48.768;14.984;2023-12-22T11:29:58;4.93;;;1.05;;
29092;SDS011;16167;48.768;14.984;2023-12-22T11:32:29;3.63;;;1.23;;
29092;SDS011;16167;48.768;14.984;2023-12-22T11:34:58;3.35;;;1.27;;
29092;SDS011;16167;48.768;14.984;2023-12-22T11:37:28;3.80;;;1.15;;
29092;SDS011;16167;48.768;14.984;2023-12-22T11:40:01;1.73;;;0.70;;
29092;SDS011;16167;48.768;14.984;2023-12-22T11:42:31;1.35;;;0.60;;
29092;SDS011;16167;48.768;14.984;2023-12-22T11:45:06;4.38;;;0.90;;
29092;SDS011;16167;48.768;14.984;2023-12-22T11:47:38;4.35;;;1.00;;
29092;SDS011;16167;48.768;14.984;2023-12-22T11:50:10;5.40;;;0.80;;
29092;SDS011;16167;48.768;14.984;2023-12-22T11:52:39;4.68;;;1.05;;
29092;SDS011;16167;48.768;14.984;2023-12-22T11:55:10;5.22;;;1.10;;
29092;SDS011;16167;48.768;14.984;2023-12-22T11:57:41;2.28;;;0.95;;
29092;SDS011;16167;48.768;14.984;2023-12-22T12:03:09;7.55;;;1.45;;
29092;SDS011;16167;48.768;14.984;2023-12-22T12:05:43;3.97;;;0.98;;
29092;SDS011;16167;48.768;14.984;2023-12-22T12:08:12;4.63;;;1.40;;
29092;SDS011;16167;48.768;14.984;2023-12-22T12:10:52;1.02;;;0.75;;
29092;SDS011;16167;48.768;14.984;2023-12-22T12:13:25;3.95;;;1.00;;
29092;SDS011;16167;48.768;14.984;2023-12-22T12:15:56;5.10;;;1.45;;
29092;SDS011;16167;48.768;14.984;2023-12-22T12:18:28;2.65;;;1.10;;
29092;SDS011;16167;48.768;14.984;2023-12-22T12:21:05;3.15;;;1.52;;
29092;SDS011;16167;48.768;14.984;2023-12-22T12:23:38;7.25;;;1.20;;
29092;SDS011;16167;48.768;14.984;2023-12-22T12:26:14;2.88;;;1.20;;
29092;SDS011;16167;48.768;14.984;2023-12-22T12:28:46;3.10;;;0.65;;
29092;SDS011;16167;48.768;14.984;2023-12-22T12:31:16;3.55;;;0.70;;
29092;SDS011;16167;48.768;14.984;2023-12-22T12:33:45;2.97;;;0.88;;
29092;SDS011;16167;48.768;14.984;2023-12-22T12:36:15;4.25;;;1.10;;
29092;SDS011;16167;48.768;14.984;2023-12-22T12:38:48;1.65;;;0.63;;
29092;SDS011;16167;48.768;14.984;2023-12-22T12:41:31;2.85;;;0.95;;
29092;SDS011;16167;48.768;14.984;2023-12-22T12:44:06;3.05;;;0.57;;
29092;SDS011;16167;48.768;14.984;2023-12-22T12:46:37;4.13;;;0.88;;
29092;SDS011;16167;48.768;14.984;2023-12-22T12:49:08;4.72;;;0.90;;
29092;SDS011;16167;48.768;14.984;2023-12-22T12:51:40;1.35;;;0.55;;
29092;SDS011;16167;48.768;14.984;2023-12-22T12:54:10;4.25;;;1.13;;
29092;SDS011;16167;48.768;14.984;2023-12-22T12:56:47;2.70;;;1.23;;
29092;SDS011;16167;48.768;14.984;2023-12-22T12:59:16;2.75;;;0.82;;
29092;SDS011;16167;48.768;14.984;2023-12-22T13:01:47;2.85;;;0.90;;
29092;SDS011;16167;48.768;14.984;2023-12-22T13:04:20;1.77;;;1.00;;
29092;SDS011;16167;48.768;14.984;2023-12-22T13:06:49;4.65;;;0.90;;
29092;SDS011;16167;48.768;14.984;2023-12-22T13:09:31;2.17;;;0.60;;
29092;SDS011;16167;48.768;14.984;2023-12-22T13:12:02;4.10;;;0.90;;
29092;SDS011;16167;48.768;14.984;2023-12-22T13:14:34;3.25;;;0.95;;
29092;SDS011;16167;48.768;14.984;2023-12-22T13:17:03;0.70;;;0.52;;
29092;SDS011;16167;48.768;14.984;2023-12-22T13:19:35;5.70;;;0.75;;
29092;SDS011;16167;48.768;14.984;2023-12-22T13:22:04;4.47;;;0.80;;
29092;SDS011;16167;48.768;14.984;2023-12-22T13:24:32;2.72;;;0.80;;
29092;SDS011;16167;48.768;14.984;2023-12-22T13:27:03;3.28;;;0.70;;
29092;SDS011;16167;48.768;14.984;2023-12-22T13:29:42;1.33;;;0.80;;
29092;SDS011;16167;48.768;14.984;2023-12-22T13:32:15;2.72;;;0.75;;
29092;SDS011;16167;48.768;14.984;2023-12-22T13:34:48;3.17;;;0.98;;
29092;SDS011;16167;48.768;14.984;2023-12-22T13:37:25;2.17;;;1.17;;
29092;SDS011;16167;48.768;14.984;2023-12-22T13:39:57;1.75;;;0.60;;
29092;SDS011;16167;48.768;14.984;2023-12-22T13:45:02;3.25;;;0.88;;
29092;SDS011;16167;48.768;14.984;2023-12-22T13:47:46;2.17;;;0.85;;
29092;SDS011;16167;48.768;14.984;2023-12-22T13:50:16;2.08;;;0.90;;
29092;SDS011;16167;48.768;14.984;2023-12-22T13:52:46;3.60;;;1.23;;
29092;SDS011;16167;48.768;14.984;2023-12-22T13:55:17;4.65;;;1.60;;
29092;SDS011;16167;48.768;14.984;2023-12-22T13:57:47;3.13;;;1.23;;
29092;SDS011;16167;48.768;14.984;2023-12-22T14:00:25;4.60;;;1.33;;
29092;SDS011;16167;48.768;14.984;2023-12-22T14:05:27;2.83;;;1.30;;
29092;SDS011;16167;48.768;14.984;2023-12-22T14:08:04;3.40;;;1.60;;
29092;SDS011;16167;48.768;14.984;2023-12-22T14:10:44;2.70;;;1.60;;
29092;SDS011;16167;48.768;14.984;2023-12-22T14:13:15;4.40;;;1.60;;
29092;SDS011;16167;48.768;14.984;2023-12-22T14:15:44;2.58;;;1.00;;
29092;SDS011;16167;48.768;14.984;2023-12-22T14:18:12;1.37;;;1.13;;
29092;SDS011;16167;48.768;14.984;2023-12-22T14:20:41;1.90;;;1.55;;
29092;SDS011;16167;48.768;14.984;2023-12-22T14:23:21;3.90;;;1.38;;
29092;SDS011;16167;48.768;14.984;2023-12-22T14:25:49;3.70;;;0.90;;
29092;SDS011;16167;48.768;14.984;2023-12-22T14:28:19;1.70;;;0.90;;
29092;SDS011;16167;48.768;14.984;2023-12-22T14:30:52;3.25;;;1.45;;
29092;SDS011;16167;48.768;14.984;2023-12-22T14:33:20;3.72;;;1.58;;
29092;SDS011;16167;48.768;14.984;2023-12-22T14:35:49;3.10;;;1.65;;
29092;SDS011;16167;48.768;14.984;2023-12-22T14:38:17;3.88;;;1.70;;
29092;SDS011;16167;48.768;14.984;2023-12-22T14:40:48;2.00;;;1.30;;
29092;SDS011;16167;48.768;14.984;2023-12-22T14:43:17;1.47;;;1.20;;
29092;SDS011;16167;48.768;14.984;2023-12-22T14:45:47;3.58;;;1.40;;
29092;SDS011;16167;48.768;14.984;2023-12-22T14:48:15;3.85;;;1.25;;
29092;SDS011;16167;48.768;14.984;2023-12-22T14:50:44;4.67;;;1.43;;
29092;SDS011;16167;48.768;14.984;2023-12-22T14:53:12;3.70;;;2.00;;
29092;SDS011;16167;48.768;14.984;2023-12-22T14:55:42;4.32;;;1.35;;
29092;SDS011;16167;48.768;14.984;2023-12-22T14:58:10;2.35;;;1.10;;
29092;SDS011;16167;48.768;14.984;2023-12-22T15:00:40;2.75;;;1.60;;
29092;SDS011;16167;48.768;14.984;2023-12-22T15:03:10;5.22;;;3.08;;
29092;SDS011;16167;48.768;14.984;2023-12-22T15:05:38;51.50;;;13.63;;
29092;SDS011;16167;48.768;14.984;2023-12-22T15:08:07;9.32;;;3.70;;
29092;SDS011;16167;48.768;14.984;2023-12-22T15:10:35;6.10;;;2.42;;
29092;SDS011;16167;48.768;14.984;2023-12-22T15:13:04;4.95;;;1.80;;
29092;SDS011;16167;48.768;14.984;2023-12-22T15:15:33;15.00;;;4.53;;
29092;SDS011;16167;48.768;14.984;2023-12-22T15:18:01;4.97;;;1.70;;
29092;SDS011;16167;48.768;14.984;2023-12-22T15:20:39;4.65;;;2.10;;
29092;SDS011;16167;48.768;14.984;2023-12-22T15:23:08;2.05;;;1.60;;
29092;SDS011;16167;48.768;14.984;2023-12-22T15:28:06;3.00;;;1.80;;
29092;SDS011;16167;48.768;14.984;2023-12-22T15:30:35;4.18;;;1.90;;